Wetterdaten: aktuell Dienstag, 18.02.2020 03:05
Datum Zeit Temp. A. Luft Gew. Boden Gew. Boden A. Feuchte A. Luftdruck Regen Wind Richtung Richtung Sonnenschein ET UV Solar Taupunkt Windchill Windben Empfang
18.02.2020 03:05 4.5 C 3.9 C 0.0 C 0.0 C 90 % 1026.6 hPa 0.0 l/m 5.4 km/h (1 Bft) SW 232 0 min 0.000 mm 0.0 UV-I 0 W/m 3.0 C 4.5 C 9.7 km/h (2 Bft) 95.70 %
18.02.2020 02:05 5.1 C 5.0 C 0.0 C 0.0 C 89 % 1026.0 hPa 0.2 l/m 8.6 km/h (2 Bft) W-SW 239 0 min 0.026 mm 0.0 UV-I 0 W/m 3.4 C 3.2 C 12.9 km/h (3 Bft) 97.44 %
18.02.2020 01:05 6.1 C 5.0 C 0.0 C 0.0 C 91 % 1025.5 hPa 0.4 l/m 16.8 km/h (3 Bft) W-SW 239 0 min 0.025 mm 0.0 UV-I 0 W/m 4.7 C -0.4 C 29.0 km/h (5 Bft) 96.58 %
18.02.2020 00:05 6.2 C 5.6 C 0.0 C 0.0 C 89 % 1024.8 hPa 0.2 l/m 12.9 km/h (3 Bft) SW 229 0 min 0.026 mm 0.0 UV-I 0 W/m 4.5 C 1.6 C 24.1 km/h (4 Bft) 100.00 %
17.02.2020 23:05 6.3 C 5.6 C 0.0 C 0.0 C 88 % 1024.4 hPa 0.0 l/m 19.1 km/h (3 Bft) W 259 0 min 0.026 mm 0.0 UV-I 0 W/m 4.5 C -1.1 C 32.2 km/h (5 Bft) 98.35 %
17.02.2020 22:05 6.7 C 6.1 C 0.0 C 0.0 C 93 % 1023.7 hPa 0.2 l/m 15.3 km/h (3 Bft) W-SW 254 0 min 0.000 mm 0.0 UV-I 0 W/m 5.6 C 1.0 C 27.4 km/h (4 Bft) 97.30 %
17.02.2020 21:05 7.3 C 6.7 C 0.0 C 0.0 C 93 % 1023.2 hPa 0.6 l/m 11.6 km/h (2 Bft) SW 236 0 min 0.025 mm 0.0 UV-I 0 W/m 6.2 C 3.6 C 24.1 km/h (4 Bft) 97.44 %
17.02.2020 20:05 7.6 C 7.2 C 0.0 C 0.0 C 92 % 1022.5 hPa 0.6 l/m 9.2 km/h (2 Bft) W-SW 240 0 min 0.025 mm 0.0 UV-I 0 W/m 6.4 C 5.5 C 12.9 km/h (3 Bft) 98.35 %
17.02.2020 19:05 7.9 C 7.2 C 0.0 C 0.0 C 91 % 1021.6 hPa 0.2 l/m 15.2 km/h (3 Bft) SW 236 0 min 0.000 mm 0.0 UV-I 0 W/m 6.5 C 2.5 C 25.7 km/h (4 Bft) 100.00 %
17.02.2020 18:05 8.1 C 7.8 C 0.0 C 0.0 C 95 % 1020.7 hPa 0.2 l/m 6.7 km/h (2 Bft) SW 224 0 min 0.000 mm 0.0 UV-I 0 W/m 7.3 C 7.9 C 14.5 km/h (3 Bft) 99.15 %
17.02.2020 17:05 8.1 C 8.9 C 0.0 C 0.0 C 94 % 1020.6 hPa 0.4 l/m 5.0 km/h (1 Bft) S-SW 208 0 min 0.000 mm 0.0 UV-I 9 W/m 7.2 C 8.1 C 8.0 km/h (2 Bft) 99.15 %
17.02.2020 16:05 8.4 C 9.4 C 0.0 C 0.0 C 93 % 1020.7 hPa 0.8 l/m 0.0 km/h (0 Bft) W 271 0 min 0.000 mm 0.0 UV-I 34 W/m 7.3 C 8.4 C 0.0 km/h (0 Bft) 99.15 %
17.02.2020 15:05 8.6 C 9.4 C 0.0 C 0.0 C 92 % 1020.4 hPa 1.2 l/m 0.0 km/h (0 Bft) W 271 0 min 0.025 mm 0.0 UV-I 44 W/m 7.4 C 8.6 C 0.0 km/h (0 Bft) 97.22 %
17.02.2020 14:05 9.0 C 10.6 C 0.0 C 0.0 C 90 % 1020.1 hPa 0.8 l/m 0.0 km/h (0 Bft) W 271 0 min 0.025 mm 0.0 UV-I 35 W/m 7.4 C 9.0 C 0.0 km/h (0 Bft) 97.46 %
17.02.2020 13:05 9.7 C 11.1 C 0.0 C 0.0 C 86 % 1019.9 hPa 0.0 l/m 0.5 km/h (0 Bft) W-NW 288 0 min 0.026 mm 0.0 UV-I 50 W/m 7.5 C 9.7 C 6.4 km/h (2 Bft) 99.15 %
17.02.2020 12:05 10.3 C 12.2 C 0.0 C 0.0 C 83 % 1019.8 hPa 0.0 l/m 0.0 km/h (0 Bft) W 280 0 min 0.000 mm 0.0 UV-I 60 W/m 7.5 C 10.3 C 0.0 km/h (0 Bft) 100.00 %
17.02.2020 11:05 10.0 C 11.1 C 0.0 C 0.0 C 82 % 1019.8 hPa 0.0 l/m 0.0 km/h (0 Bft) W 280 0 min 0.000 mm 0.5 UV-I 100 W/m 7.1 C 10.0 C 0.0 km/h (0 Bft) 100.00 %
17.02.2020 10:05 9.5 C 9.4 C 0.0 C 0.0 C 81 % 1019.9 hPa 0.0 l/m 0.0 km/h (0 Bft) W 280 0 min 0.025 mm 0.0 UV-I 50 W/m 6.4 C 9.5 C 0.0 km/h (0 Bft) 99.15 %
17.02.2020 09:05 7.5 C 7.2 C 0.0 C 0.0 C 85 % 1019.9 hPa 0.0 l/m 0.0 km/h (0 Bft) W 280 0 min 0.025 mm 0.0 UV-I 78 W/m 5.1 C 7.5 C 0.0 km/h (0 Bft) 100.00 %
17.02.2020 08:05 7.8 C 6.7 C 0.0 C 0.0 C 80 % 1020.6 hPa 0.0 l/m 0.0 km/h (0 Bft) W 280 0 min 0.001 mm 0.0 UV-I 7 W/m 4.6 C 7.8 C 0.0 km/h (0 Bft) 100.00 %
17.02.2020 07:05 7.8 C 6.1 C 0.0 C 0.0 C 80 % 1020.0 hPa 0.0 l/m 2.0 km/h (1 Bft) NW 304 0 min 0.025 mm 0.0 UV-I 0 W/m 4.6 C 7.8 C 11.3 km/h (2 Bft) 100.00 %
17.02.2020 06:05 8.2 C 6.7 C 0.0 C 0.0 C 74 % 1019.6 hPa 0.0 l/m 2.7 km/h (1 Bft) W 260 0 min 0.025 mm 0.0 UV-I 0 W/m 3.8 C 8.2 C 8.0 km/h (2 Bft) 96.58 %
17.02.2020 05:05 9.0 C 6.1 C 0.0 C 0.0 C 71 % 1018.5 hPa 0.0 l/m 7.1 km/h (2 Bft) W-SW 242 0 min 0.025 mm 0.0 UV-I 0 W/m 4.0 C 8.5 C 12.9 km/h (3 Bft) 97.44 %
17.02.2020 04:05 8.7 C 6.1 C 0.0 C 0.0 C 71 % 1017.7 hPa 0.0 l/m 6.4 km/h (2 Bft) SW 225 0 min 0.025 mm 0.0 UV-I 0 W/m 3.7 C 8.7 C 16.1 km/h (3 Bft) 98.10 %
17.02.2020 04:00 8.6 C 6.1 C 0.0 C 0.0 C 71 % 1017.8 hPa 0.0 l/m 7.4 km/h (2 Bft) SW 219 0 min 0.000 mm 0.0 UV-I 0 W/m 3.6 C 7.8 C 12.9 km/h (3 Bft) 100.00 %
_ Min-Zeit 03:05 02:50 04:00 04:00 04:15 04:05 - 06:20 - - - - - - 03:05 00:50 06:55 13:50
Minimum _ 4.5 C 3.9 C 0.0 C 0.0 C 70 % 1017.7 hPa - 0.0 km/h (0 Bft) - - - - - - 3.0 C -2.2 C 0.0 km/h (0 Bft) 94.87 %
_ Max-Zeit 11:40 11:35 04:00 04:00 18:00 02:55 13:25 00:50 - - 04:00 13:00 10:50 10:50 13:25 11:40 19:10 04:00
Maximum _ 10.6 C 12.2 C 0.0 C 0.0 C 95 % 1026.7 hPa 0.2 l/m 21.6 km/h
W-SW (4 Bft)
- - 0 min 0.026 mm 0.7 UV-I 136 W/m 7.9 C 10.6 C 37.0 km/h
S-SW (5 Bft)
100.00 %
Durchschnitt _ 8.0 C 7.6 C 0.0 C 0.0 C 85 % 1021.2 hPa #5.8 l/m 6.3 km/h (2 Bft) SW - #0 min. #0.051 mm 0.0 UV-I 0 W/m 5.6 C 6.3 C 11.6 km/h (2 Bft) 98.92 %